sensor_id;sensor_type;location;lat;lon;timestamp;temperature;humidity
53264;DHT22;39153;52.680;6.172;2022-07-22T00:02:19;15.70;99.90
53264;DHT22;39153;52.680;6.172;2022-07-22T00:04:45;15.80;99.90
53264;DHT22;39153;52.680;6.172;2022-07-22T00:07:11;15.90;99.90
53264;DHT22;39153;52.680;6.172;2022-07-22T00:09:36;15.80;99.90
53264;DHT22;39153;52.680;6.172;2022-07-22T00:12:02;15.80;99.90
53264;DHT22;39153;52.680;6.172;2022-07-22T00:14:28;15.80;99.90
53264;DHT22;39153;52.680;6.172;2022-07-22T00:16:54;15.90;99.90
53264;DHT22;39153;52.680;6.172;2022-07-22T00:19:19;15.90;99.90
53264;DHT22;39153;52.680;6.172;2022-07-22T00:21:45;15.90;99.90
53264;DHT22;39153;52.680;6.172;2022-07-22T00:24:11;15.80;99.90
53264;DHT22;39153;52.680;6.172;2022-07-22T00:26:36;15.90;99.90
53264;DHT22;39153;52.680;6.172;2022-07-22T00:29:02;15.80;99.90
53264;DHT22;39153;52.680;6.172;2022-07-22T00:31:28;15.70;99.90
53264;DHT22;39153;52.680;6.172;2022-07-22T00:33:53;15.90;99.90
53264;DHT22;39153;52.680;6.172;2022-07-22T00:36:19;15.80;99.90
53264;DHT22;39153;52.680;6.172;2022-07-22T00:38:45;15.80;99.90
53264;DHT22;39153;52.680;6.172;2022-07-22T00:41:10;15.70;99.90
53264;DHT22;39153;52.680;6.172;2022-07-22T00:43:50;15.70;99.90
53264;DHT22;39153;52.680;6.172;2022-07-22T00:46:16;15.80;99.90
53264;DHT22;39153;52.680;6.172;2022-07-22T00:48:42;15.80;99.90
53264;DHT22;39153;52.680;6.172;2022-07-22T00:51:08;15.70;99.90
53264;DHT22;39153;52.680;6.172;2022-07-22T00:53:34;15.80;99.90
53264;DHT22;39153;52.680;6.172;2022-07-22T00:56:01;15.70;99.90
53264;DHT22;39153;52.680;6.172;2022-07-22T00:58:27;15.80;99.90
53264;DHT22;39153;52.680;6.172;2022-07-22T01:00:53;15.80;99.90
53264;DHT22;39153;52.680;6.172;2022-07-22T01:03:19;15.80;99.90
53264;DHT22;39153;52.680;6.172;2022-07-22T01:05:44;15.80;99.90
53264;DHT22;39153;52.680;6.172;2022-07-22T01:08:10;15.80;99.90
53264;DHT22;39153;52.680;6.172;2022-07-22T01:10:36;15.70;99.90
53264;DHT22;39153;52.680;6.172;2022-07-22T01:13:02;15.80;99.90
53264;DHT22;39153;52.680;6.172;2022-07-22T01:15:27;15.80;99.90
53264;DHT22;39153;52.680;6.172;2022-07-22T01:17:53;15.80;99.90
53264;DHT22;39153;52.680;6.172;2022-07-22T01:20:19;15.80;99.90
53264;DHT22;39153;52.680;6.172;2022-07-22T01:22:44;15.70;99.90
53264;DHT22;39153;52.680;6.172;2022-07-22T01:25:11;15.80;99.90
53264;DHT22;39153;52.680;6.172;2022-07-22T01:27:37;15.80;99.90
53264;DHT22;39153;52.680;6.172;2022-07-22T01:30:04;15.80;99.90
53264;DHT22;39153;52.680;6.172;2022-07-22T01:32:30;15.80;99.90
53264;DHT22;39153;52.680;6.172;2022-07-22T01:34:56;15.80;99.90
53264;DHT22;39153;52.680;6.172;2022-07-22T01:37:22;15.80;99.90
53264;DHT22;39153;52.680;6.172;2022-07-22T01:39:48;15.80;99.90
53264;DHT22;39153;52.680;6.172;2022-07-22T01:42:14;15.80;99.90
53264;DHT22;39153;52.680;6.172;2022-07-22T01:44:40;15.70;99.90
53264;DHT22;39153;52.680;6.172;2022-07-22T01:47:05;15.80;99.90
53264;DHT22;39153;52.680;6.172;2022-07-22T01:49:31;15.80;99.90
53264;DHT22;39153;52.680;6.172;2022-07-22T01:51:58;15.70;99.90
53264;DHT22;39153;52.680;6.172;2022-07-22T01:54:24;15.70;99.90
53264;DHT22;39153;52.680;6.172;2022-07-22T01:56:49;15.70;99.90
53264;DHT22;39153;52.680;6.172;2022-07-22T01:59:15;15.80;99.90
53264;DHT22;39153;52.680;6.172;2022-07-22T02:01:41;15.70;99.90
53264;DHT22;39153;52.680;6.172;2022-07-22T02:04:06;15.80;99.90
53264;DHT22;39153;52.680;6.172;2022-07-22T02:06:32;15.70;99.90
53264;DHT22;39153;52.680;6.172;2022-07-22T02:08:58;15.70;99.90
53264;DHT22;39153;52.680;6.172;2022-07-22T02:11:24;15.80;99.90
53264;DHT22;39153;52.680;6.172;2022-07-22T02:13:50;15.80;99.90
53264;DHT22;39153;52.680;6.172;2022-07-22T02:16:15;15.70;99.90
53264;DHT22;39153;52.680;6.172;2022-07-22T02:18:41;15.70;99.90
53264;DHT22;39153;52.680;6.172;2022-07-22T02:21:07;15.80;99.90
53264;DHT22;39153;52.680;6.172;2022-07-22T02:23:33;15.70;99.90
53264;DHT22;39153;52.680;6.172;2022-07-22T02:25:58;15.80;99.90
53264;DHT22;39153;52.680;6.172;2022-07-22T02:28:24;15.80;99.90
53264;DHT22;39153;52.680;6.172;2022-07-22T02:30:50;15.80;99.90
53264;DHT22;39153;52.680;6.172;2022-07-22T02:33:15;15.80;99.90
53264;DHT22;39153;52.680;6.172;2022-07-22T02:35:41;15.60;99.90
53264;DHT22;39153;52.680;6.172;2022-07-22T02:38:07;15.70;99.90
53264;DHT22;39153;52.680;6.172;2022-07-22T02:40:32;15.70;99.90
53264;DHT22;39153;52.680;6.172;2022-07-22T02:42:58;15.70;99.90
53264;DHT22;39153;52.680;6.172;2022-07-22T02:45:24;15.70;99.90
53264;DHT22;39153;52.680;6.172;2022-07-22T02:47:52;15.70;99.90
53264;DHT22;39153;52.680;6.172;2022-07-22T02:50:18;15.70;99.90
53264;DHT22;39153;52.680;6.172;2022-07-22T02:56:20;15.70;99.90
53264;DHT22;39153;52.680;6.172;2022-07-22T02:58:45;15.70;99.90
53264;DHT22;39153;52.680;6.172;2022-07-22T03:01:18;15.70;99.90
53264;DHT22;39153;52.680;6.172;2022-07-22T03:03:44;15.60;99.90
53264;DHT22;39153;52.680;6.172;2022-07-22T03:06:10;15.60;99.90
53264;DHT22;39153;52.680;6.172;2022-07-22T03:08:36;15.70;99.90
53264;DHT22;39153;52.680;6.172;2022-07-22T03:11:02;15.80;99.90
53264;DHT22;39153;52.680;6.172;2022-07-22T03:13:28;15.70;99.90
53264;DHT22;39153;52.680;6.172;2022-07-22T03:15:54;15.80;99.90
53264;DHT22;39153;52.680;6.172;2022-07-22T03:18:20;15.60;99.90
53264;DHT22;39153;52.680;6.172;2022-07-22T03:20:45;15.80;99.90
53264;DHT22;39153;52.680;6.172;2022-07-22T03:23:11;15.60;99.90
53264;DHT22;39153;52.680;6.172;2022-07-22T03:25:37;15.70;99.90
53264;DHT22;39153;52.680;6.172;2022-07-22T03:28:04;15.70;99.90
53264;DHT22;39153;52.680;6.172;2022-07-22T03:30:30;15.70;99.90
53264;DHT22;39153;52.680;6.172;2022-07-22T03:32:55;15.70;99.90
53264;DHT22;39153;52.680;6.172;2022-07-22T03:35:21;15.70;99.90
53264;DHT22;39153;52.680;6.172;2022-07-22T03:37:47;15.70;99.90
53264;DHT22;39153;52.680;6.172;2022-07-22T03:40:13;15.80;99.90
53264;DHT22;39153;52.680;6.172;2022-07-22T03:42:38;15.70;99.90
53264;DHT22;39153;52.680;6.172;2022-07-22T03:45:04;15.70;99.90
53264;DHT22;39153;52.680;6.172;2022-07-22T03:47:30;15.70;99.90
53264;DHT22;39153;52.680;6.172;2022-07-22T03:49:56;15.70;99.90
53264;DHT22;39153;52.680;6.172;2022-07-22T03:52:24;15.60;99.90
53264;DHT22;39153;52.680;6.172;2022-07-22T03:54:50;15.70;99.90
53264;DHT22;39153;52.680;6.172;2022-07-22T03:57:15;15.60;99.90
53264;DHT22;39153;52.680;6.172;2022-07-22T03:59:41;15.70;99.90
53264;DHT22;39153;52.680;6.172;2022-07-22T04:02:07;15.60;99.90
53264;DHT22;39153;52.680;6.172;2022-07-22T04:04:32;15.60;99.90
53264;DHT22;39153;52.680;6.172;2022-07-22T04:06:58;15.70;99.90
53264;DHT22;39153;52.680;6.172;2022-07-22T04:09:24;15.60;99.90
53264;DHT22;39153;52.680;6.172;2022-07-22T04:11:50;15.60;99.90
53264;DHT22;39153;52.680;6.172;2022-07-22T04:14:18;15.60;99.90
53264;DHT22;39153;52.680;6.172;2022-07-22T04:16:44;15.60;99.90
53264;DHT22;39153;52.680;6.172;2022-07-22T04:19:10;15.70;99.90
53264;DHT22;39153;52.680;6.172;2022-07-22T04:21:36;15.70;99.90
53264;DHT22;39153;52.680;6.172;2022-07-22T04:24:02;15.60;99.90
53264;DHT22;39153;52.680;6.172;2022-07-22T04:26:28;15.60;99.90
53264;DHT22;39153;52.680;6.172;2022-07-22T04:28:54;15.60;99.90
53264;DHT22;39153;52.680;6.172;2022-07-22T04:31:19;15.70;99.90
53264;DHT22;39153;52.680;6.172;2022-07-22T04:33:45;15.60;99.90
53264;DHT22;39153;52.680;6.172;2022-07-22T04:36:11;15.60;99.90
53264;DHT22;39153;52.680;6.172;2022-07-22T04:38:36;15.60;99.90
53264;DHT22;39153;52.680;6.172;2022-07-22T04:41:02;15.70;99.90
53264;DHT22;39153;52.680;6.172;2022-07-22T04:43:28;15.60;99.90
53264;DHT22;39153;52.680;6.172;2022-07-22T04:45:55;15.60;99.90
53264;DHT22;39153;52.680;6.172;2022-07-22T04:48:20;15.60;99.90
53264;DHT22;39153;52.680;6.172;2022-07-22T04:50:46;15.70;99.90
53264;DHT22;39153;52.680;6.172;2022-07-22T04:53:12;15.60;99.90
53264;DHT22;39153;52.680;6.172;2022-07-22T04:55:38;15.60;99.90
53264;DHT22;39153;52.680;6.172;2022-07-22T04:58:03;15.70;99.90
53264;DHT22;39153;52.680;6.172;2022-07-22T05:00:29;15.60;99.90
53264;DHT22;39153;52.680;6.172;2022-07-22T05:02:55;15.60;99.90
53264;DHT22;39153;52.680;6.172;2022-07-22T05:05:21;15.70;99.90
53264;DHT22;39153;52.680;6.172;2022-07-22T05:07:47;15.60;99.90
53264;DHT22;39153;52.680;6.172;2022-07-22T05:10:13;15.60;99.90
53264;DHT22;39153;52.680;6.172;2022-07-22T05:12:38;15.60;99.90
53264;DHT22;39153;52.680;6.172;2022-07-22T05:15:04;15.60;99.90
53264;DHT22;39153;52.680;6.172;2022-07-22T05:17:30;15.70;99.90
53264;DHT22;39153;52.680;6.172;2022-07-22T05:19:56;15.80;99.90
53264;DHT22;39153;52.680;6.172;2022-07-22T05:22:22;15.80;99.90
53264;DHT22;39153;52.680;6.172;2022-07-22T05:24:47;15.80;99.90
53264;DHT22;39153;52.680;6.172;2022-07-22T05:27:13;15.80;99.90
53264;DHT22;39153;52.680;6.172;2022-07-22T05:29:39;15.90;99.90
53264;DHT22;39153;52.680;6.172;2022-07-22T05:32:04;15.90;99.90
53264;DHT22;39153;52.680;6.172;2022-07-22T05:34:30;15.90;99.90
53264;DHT22;39153;52.680;6.172;2022-07-22T05:36:56;15.90;99.90
53264;DHT22;39153;52.680;6.172;2022-07-22T05:39:22;16.00;99.90
53264;DHT22;39153;52.680;6.172;2022-07-22T05:41:48;15.90;99.90
53264;DHT22;39153;52.680;6.172;2022-07-22T05:44:13;16.00;99.90
53264;DHT22;39153;52.680;6.172;2022-07-22T05:46:39;16.00;99.90
53264;DHT22;39153;52.680;6.172;2022-07-22T05:49:05;16.00;99.90
53264;DHT22;39153;52.680;6.172;2022-07-22T05:51:31;16.00;99.90
53264;DHT22;39153;52.680;6.172;2022-07-22T05:53:57;16.10;99.90
53264;DHT22;39153;52.680;6.172;2022-07-22T05:56:23;16.20;99.90
53264;DHT22;39153;52.680;6.172;2022-07-22T05:58:49;16.20;99.90
53264;DHT22;39153;52.680;6.172;2022-07-22T06:01:15;16.20;99.90
53264;DHT22;39153;52.680;6.172;2022-07-22T06:03:40;16.30;99.90
53264;DHT22;39153;52.680;6.172;2022-07-22T06:06:07;16.20;99.90
53264;DHT22;39153;52.680;6.172;2022-07-22T06:08:34;16.30;99.90
53264;DHT22;39153;52.680;6.172;2022-07-22T06:11:00;16.30;99.90
53264;DHT22;39153;52.680;6.172;2022-07-22T06:13:26;16.40;99.90
53264;DHT22;39153;52.680;6.172;2022-07-22T06:15:52;16.40;99.90
53264;DHT22;39153;52.680;6.172;2022-07-22T06:18:18;16.40;99.90
53264;DHT22;39153;52.680;6.172;2022-07-22T06:20:44;16.40;99.90
53264;DHT22;39153;52.680;6.172;2022-07-22T06:23:10;16.40;99.90
53264;DHT22;39153;52.680;6.172;2022-07-22T06:25:36;16.40;99.90
53264;DHT22;39153;52.680;6.172;2022-07-22T06:28:02;16.40;99.90
53264;DHT22;39153;52.680;6.172;2022-07-22T06:30:28;16.30;99.90
53264;DHT22;39153;52.680;6.172;2022-07-22T06:32:53;16.40;99.90
53264;DHT22;39153;52.680;6.172;2022-07-22T06:35:19;16.40;99.90
53264;DHT22;39153;52.680;6.172;2022-07-22T06:37:45;16.50;99.90
53264;DHT22;39153;52.680;6.172;2022-07-22T06:40:11;16.50;99.90
53264;DHT22;39153;52.680;6.172;2022-07-22T06:42:37;16.50;99.90
53264;DHT22;39153;52.680;6.172;2022-07-22T06:45:04;16.60;99.90
53264;DHT22;39153;52.680;6.172;2022-07-22T06:47:30;16.60;99.90
53264;DHT22;39153;52.680;6.172;2022-07-22T06:49:57;16.70;99.90
53264;DHT22;39153;52.680;6.172;2022-07-22T06:52:23;16.70;99.90
53264;DHT22;39153;52.680;6.172;2022-07-22T06:54:49;16.70;99.90
53264;DHT22;39153;52.680;6.172;2022-07-22T06:57:14;16.70;99.90
53264;DHT22;39153;52.680;6.172;2022-07-22T06:59:40;16.70;99.90
53264;DHT22;39153;52.680;6.172;2022-07-22T07:02:06;16.70;99.90
53264;DHT22;39153;52.680;6.172;2022-07-22T07:04:32;16.70;99.90
53264;DHT22;39153;52.680;6.172;2022-07-22T07:06:57;16.70;99.90
53264;DHT22;39153;52.680;6.172;2022-07-22T07:09:23;16.70;99.90
53264;DHT22;39153;52.680;6.172;2022-07-22T07:11:49;16.80;99.90
53264;DHT22;39153;52.680;6.172;2022-07-22T07:14:15;16.90;99.90
53264;DHT22;39153;52.680;6.172;2022-07-22T07:16:40;16.90;99.90
53264;DHT22;39153;52.680;6.172;2022-07-22T07:19:06;16.90;99.90
53264;DHT22;39153;52.680;6.172;2022-07-22T07:21:32;17.00;99.90
53264;DHT22;39153;52.680;6.172;2022-07-22T07:23:57;16.90;99.90
53264;DHT22;39153;52.680;6.172;2022-07-22T07:26:23;17.00;99.90
53264;DHT22;39153;52.680;6.172;2022-07-22T07:28:49;17.00;99.90
53264;DHT22;39153;52.680;6.172;2022-07-22T07:31:15;17.00;99.90
53264;DHT22;39153;52.680;6.172;2022-07-22T07:33:42;17.10;99.90
53264;DHT22;39153;52.680;6.172;2022-07-22T07:36:08;17.00;99.90
53264;DHT22;39153;52.680;6.172;2022-07-22T07:38:34;17.10;99.90
53264;DHT22;39153;52.680;6.172;2022-07-22T07:40:59;17.20;99.90
53264;DHT22;39153;52.680;6.172;2022-07-22T07:43:25;17.30;99.90
53264;DHT22;39153;52.680;6.172;2022-07-22T07:45:51;17.30;99.90
53264;DHT22;39153;52.680;6.172;2022-07-22T07:48:16;17.30;99.90
53264;DHT22;39153;52.680;6.172;2022-07-22T07:50:42;17.40;99.90
53264;DHT22;39153;52.680;6.172;2022-07-22T07:53:08;17.50;99.90
53264;DHT22;39153;52.680;6.172;2022-07-22T07:55:33;17.50;99.90
53264;DHT22;39153;52.680;6.172;2022-07-22T07:58:02;17.50;99.90
53264;DHT22;39153;52.680;6.172;2022-07-22T08:00:28;17.70;99.90
53264;DHT22;39153;52.680;6.172;2022-07-22T08:02:57;17.80;99.90
53264;DHT22;39153;52.680;6.172;2022-07-22T08:05:24;17.80;99.90
53264;DHT22;39153;52.680;6.172;2022-07-22T08:07:50;17.90;99.90
53264;DHT22;39153;52.680;6.172;2022-07-22T08:10:17;17.90;99.90
53264;DHT22;39153;52.680;6.172;2022-07-22T08:12:43;18.10;99.90
53264;DHT22;39153;52.680;6.172;2022-07-22T08:15:09;18.10;99.90
53264;DHT22;39153;52.680;6.172;2022-07-22T08:17:35;18.20;99.90
53264;DHT22;39153;52.680;6.172;2022-07-22T08:20:03;18.30;99.90
53264;DHT22;39153;52.680;6.172;2022-07-22T08:22:30;18.30;99.90
53264;DHT22;39153;52.680;6.172;2022-07-22T08:24:56;18.20;99.90
53264;DHT22;39153;52.680;6.172;2022-07-22T08:27:21;18.20;99.90
53264;DHT22;39153;52.680;6.172;2022-07-22T08:29:47;18.20;99.90
53264;DHT22;39153;52.680;6.172;2022-07-22T08:32:13;18.20;99.90
53264;DHT22;39153;52.680;6.172;2022-07-22T08:34:39;18.10;99.90
53264;DHT22;39153;52.680;6.172;2022-07-22T08:37:04;18.20;99.90
53264;DHT22;39153;52.680;6.172;2022-07-22T08:39:30;18.20;99.90
53264;DHT22;39153;52.680;6.172;2022-07-22T08:41:56;18.20;99.90
53264;DHT22;39153;52.680;6.172;2022-07-22T08:44:22;18.20;99.90
53264;DHT22;39153;52.680;6.172;2022-07-22T08:46:48;18.20;99.90
53264;DHT22;39153;52.680;6.172;2022-07-22T08:49:17;18.20;99.90
53264;DHT22;39153;52.680;6.172;2022-07-22T08:51:43;18.10;99.90
53264;DHT22;39153;52.680;6.172;2022-07-22T08:54:09;18.20;99.90
53264;DHT22;39153;52.680;6.172;2022-07-22T08:56:35;18.10;99.90
53264;DHT22;39153;52.680;6.172;2022-07-22T08:59:03;18.10;99.90
53264;DHT22;39153;52.680;6.172;2022-07-22T09:01:29;18.10;99.90
53264;DHT22;39153;52.680;6.172;2022-07-22T09:03:56;18.20;99.90
53264;DHT22;39153;52.680;6.172;2022-07-22T09:06:27;18.20;99.90
53264;DHT22;39153;52.680;6.172;2022-07-22T09:09:03;18.30;99.90
53264;DHT22;39153;52.680;6.172;2022-07-22T09:11:31;18.50;99.90
53264;DHT22;39153;52.680;6.172;2022-07-22T09:13:58;18.60;99.90
53264;DHT22;39153;52.680;6.172;2022-07-22T09:16:40;18.50;99.90
53264;DHT22;39153;52.680;6.172;2022-07-22T09:19:07;18.70;99.90
53264;DHT22;39153;52.680;6.172;2022-07-22T09:21:35;18.80;99.90
53264;DHT22;39153;52.680;6.172;2022-07-22T09:24:03;18.90;99.90
53264;DHT22;39153;52.680;6.172;2022-07-22T09:26:34;18.90;99.90
53264;DHT22;39153;52.680;6.172;2022-07-22T09:29:01;18.80;99.90
53264;DHT22;39153;52.680;6.172;2022-07-22T09:31:29;18.90;99.90
53264;DHT22;39153;52.680;6.172;2022-07-22T09:33:56;18.90;99.90
53264;DHT22;39153;52.680;6.172;2022-07-22T09:36:22;19.00;99.90
53264;DHT22;39153;52.680;6.172;2022-07-22T09:38:48;19.20;99.90
53264;DHT22;39153;52.680;6.172;2022-07-22T09:41:14;19.10;99.90
53264;DHT22;39153;52.680;6.172;2022-07-22T09:43:40;19.00;99.90
53264;DHT22;39153;52.680;6.172;2022-07-22T09:46:05;19.20;99.90
53264;DHT22;39153;52.680;6.172;2022-07-22T09:48:32;19.20;99.90
53264;DHT22;39153;52.680;6.172;2022-07-22T09:50:58;19.30;99.90
53264;DHT22;39153;52.680;6.172;2022-07-22T09:53:26;19.40;99.90
53264;DHT22;39153;52.680;6.172;2022-07-22T09:56:03;19.40;99.90
53264;DHT22;39153;52.680;6.172;2022-07-22T09:58:29;19.30;99.90
53264;DHT22;39153;52.680;6.172;2022-07-22T10:00:58;19.40;99.90
53264;DHT22;39153;52.680;6.172;2022-07-22T10:03:31;19.30;99.90
53264;DHT22;39153;52.680;6.172;2022-07-22T10:05:59;19.30;99.90
53264;DHT22;39153;52.680;6.172;2022-07-22T10:08:26;19.30;99.90
53264;DHT22;39153;52.680;6.172;2022-07-22T10:10:53;19.40;99.90
53264;DHT22;39153;52.680;6.172;2022-07-22T10:13:23;19.50;99.90
53264;DHT22;39153;52.680;6.172;2022-07-22T10:15:49;19.40;99.90
53264;DHT22;39153;52.680;6.172;2022-07-22T10:18:17;19.60;99.90
53264;DHT22;39153;52.680;6.172;2022-07-22T10:20:43;19.50;99.90
53264;DHT22;39153;52.680;6.172;2022-07-22T10:23:10;19.60;99.90
53264;DHT22;39153;52.680;6.172;2022-07-22T10:26:06;19.90;99.90
53264;DHT22;39153;52.680;6.172;2022-07-22T10:28:34;19.80;99.90
53264;DHT22;39153;52.680;6.172;2022-07-22T10:31:23;19.70;99.90
53264;DHT22;39153;52.680;6.172;2022-07-22T10:33:54;19.60;99.90
53264;DHT22;39153;52.680;6.172;2022-07-22T10:36:37;19.60;99.90
53264;DHT22;39153;52.680;6.172;2022-07-22T10:39:05;19.70;99.90
53264;DHT22;39153;52.680;6.172;2022-07-22T10:41:36;19.70;99.90
53264;DHT22;39153;52.680;6.172;2022-07-22T10:44:03;19.70;99.90
53264;DHT22;39153;52.680;6.172;2022-07-22T10:49:15;19.70;99.90
53264;DHT22;39153;52.680;6.172;2022-07-22T10:54:33;19.50;99.90
53264;DHT22;39153;52.680;6.172;2022-07-22T10:57:02;19.50;99.90
53264;DHT22;39153;52.680;6.172;2022-07-22T10:59:28;19.60;99.90
53264;DHT22;39153;52.680;6.172;2022-07-22T11:01:54;19.60;99.90
53264;DHT22;39153;52.680;6.172;2022-07-22T11:04:24;19.50;99.90
53264;DHT22;39153;52.680;6.172;2022-07-22T11:06:54;19.70;99.90
53264;DHT22;39153;52.680;6.172;2022-07-22T11:09:23;19.60;99.90
53264;DHT22;39153;52.680;6.172;2022-07-22T11:11:54;19.40;99.90
53264;DHT22;39153;52.680;6.172;2022-07-22T11:14:30;19.40;99.90
53264;DHT22;39153;52.680;6.172;2022-07-22T11:17:05;19.40;99.90
53264;DHT22;39153;52.680;6.172;2022-07-22T11:19:31;19.40;99.90
53264;DHT22;39153;52.680;6.172;2022-07-22T11:22:16;19.30;99.90
53264;DHT22;39153;52.680;6.172;2022-07-22T11:24:43;19.40;99.90
53264;DHT22;39153;52.680;6.172;2022-07-22T11:27:17;19.60;99.90
53264;DHT22;39153;52.680;6.172;2022-07-22T11:29:48;19.70;99.90
53264;DHT22;39153;52.680;6.172;2022-07-22T11:32:14;19.80;99.90
53264;DHT22;39153;52.680;6.172;2022-07-22T11:34:42;19.80;99.90
53264;DHT22;39153;52.680;6.172;2022-07-22T11:37:11;19.80;99.90
53264;DHT22;39153;52.680;6.172;2022-07-22T11:39:37;19.90;99.90
53264;DHT22;39153;52.680;6.172;2022-07-22T11:42:03;20.00;99.90
53264;DHT22;39153;52.680;6.172;2022-07-22T11:44:32;19.80;99.90
53264;DHT22;39153;52.680;6.172;2022-07-22T11:46:59;19.70;99.90
53264;DHT22;39153;52.680;6.172;2022-07-22T11:49:27;19.80;99.90
53264;DHT22;39153;52.680;6.172;2022-07-22T11:51:53;19.50;99.90
53264;DHT22;39153;52.680;6.172;2022-07-22T11:54:19;19.40;99.90
53264;DHT22;39153;52.680;6.172;2022-07-22T11:56:45;19.60;99.90
53264;DHT22;39153;52.680;6.172;2022-07-22T11:59:14;19.70;99.90
53264;DHT22;39153;52.680;6.172;2022-07-22T12:01:40;19.80;99.90
53264;DHT22;39153;52.680;6.172;2022-07-22T12:04:08;19.90;99.90
53264;DHT22;39153;52.680;6.172;2022-07-22T12:06:36;19.80;99.90
53264;DHT22;39153;52.680;6.172;2022-07-22T12:09:07;19.90;99.90
53264;DHT22;39153;52.680;6.172;2022-07-22T12:11:34;19.90;99.90
53264;DHT22;39153;52.680;6.172;2022-07-22T12:14:12;20.00;99.90
53264;DHT22;39153;52.680;6.172;2022-07-22T12:16:40;20.00;99.90
53264;DHT22;39153;52.680;6.172;2022-07-22T12:19:07;20.00;99.90
53264;DHT22;39153;52.680;6.172;2022-07-22T12:21:35;20.10;99.90
53264;DHT22;39153;52.680;6.172;2022-07-22T12:24:06;19.90;99.90
53264;DHT22;39153;52.680;6.172;2022-07-22T12:29:16;19.80;99.90
53264;DHT22;39153;52.680;6.172;2022-07-22T12:31:47;19.80;99.90
53264;DHT22;39153;52.680;6.172;2022-07-22T12:34:13;19.60;99.90
53264;DHT22;39153;52.680;6.172;2022-07-22T12:36:42;19.70;99.90
53264;DHT22;39153;52.680;6.172;2022-07-22T12:39:16;19.60;99.90
53264;DHT22;39153;52.680;6.172;2022-07-22T12:41:49;19.60;99.90
53264;DHT22;39153;52.680;6.172;2022-07-22T12:44:23;19.80;99.90
53264;DHT22;39153;52.680;6.172;2022-07-22T12:46:50;19.60;99.90
53264;DHT22;39153;52.680;6.172;2022-07-22T12:49:19;19.60;99.90
53264;DHT22;39153;52.680;6.172;2022-07-22T12:52:24;19.80;99.90
53264;DHT22;39153;52.680;6.172;2022-07-22T12:54:50;19.80;99.90
53264;DHT22;39153;52.680;6.172;2022-07-22T12:57:15;19.70;99.90
53264;DHT22;39153;52.680;6.172;2022-07-22T12:59:51;19.70;99.90
53264;DHT22;39153;52.680;6.172;2022-07-22T13:02:17;19.60;99.90
53264;DHT22;39153;52.680;6.172;2022-07-22T13:04:42;19.70;99.90
53264;DHT22;39153;52.680;6.172;2022-07-22T13:07:08;19.70;99.90
53264;DHT22;39153;52.680;6.172;2022-07-22T13:09:34;19.90;99.90
53264;DHT22;39153;52.680;6.172;2022-07-22T13:11:59;20.00;99.90
53264;DHT22;39153;52.680;6.172;2022-07-22T13:14:25;20.00;99.90
53264;DHT22;39153;52.680;6.172;2022-07-22T13:16:51;20.20;99.90
53264;DHT22;39153;52.680;6.172;2022-07-22T13:19:16;20.20;99.90
53264;DHT22;39153;52.680;6.172;2022-07-22T13:21:42;20.20;99.90
53264;DHT22;39153;52.680;6.172;2022-07-22T13:24:09;20.30;99.90
53264;DHT22;39153;52.680;6.172;2022-07-22T13:26:36;20.10;99.90
53264;DHT22;39153;52.680;6.172;2022-07-22T13:29:02;20.20;99.90
53264;DHT22;39153;52.680;6.172;2022-07-22T13:31:28;20.30;99.90
53264;DHT22;39153;52.680;6.172;2022-07-22T13:33:54;20.20;99.90
53264;DHT22;39153;52.680;6.172;2022-07-22T13:36:19;20.20;99.90
53264;DHT22;39153;52.680;6.172;2022-07-22T13:38:45;20.30;99.90
53264;DHT22;39153;52.680;6.172;2022-07-22T13:41:12;20.30;99.90
53264;DHT22;39153;52.680;6.172;2022-07-22T13:43:44;20.40;99.90
53264;DHT22;39153;52.680;6.172;2022-07-22T13:46:10;20.30;99.90
53264;DHT22;39153;52.680;6.172;2022-07-22T13:48:36;20.30;99.90
53264;DHT22;39153;52.680;6.172;2022-07-22T13:51:02;20.00;99.90
53264;DHT22;39153;52.680;6.172;2022-07-22T13:53:30;19.90;99.90
53264;DHT22;39153;52.680;6.172;2022-07-22T13:55:56;20.10;99.90
53264;DHT22;39153;52.680;6.172;2022-07-22T13:58:21;20.10;99.90
53264;DHT22;39153;52.680;6.172;2022-07-22T14:00:47;20.10;99.90
53264;DHT22;39153;52.680;6.172;2022-07-22T14:03:13;20.00;99.90
53264;DHT22;39153;52.680;6.172;2022-07-22T14:05:38;20.10;99.90
53264;DHT22;39153;52.680;6.172;2022-07-22T14:08:04;20.00;99.90
53264;DHT22;39153;52.680;6.172;2022-07-22T14:10:30;19.80;99.90
53264;DHT22;39153;52.680;6.172;2022-07-22T14:12:56;19.90;99.90
53264;DHT22;39153;52.680;6.172;2022-07-22T14:15:21;19.80;99.90
53264;DHT22;39153;52.680;6.172;2022-07-22T14:17:47;19.80;99.90
53264;DHT22;39153;52.680;6.172;2022-07-22T14:20:13;20.10;99.90
53264;DHT22;39153;52.680;6.172;2022-07-22T14:22:38;20.20;99.90
53264;DHT22;39153;52.680;6.172;2022-07-22T14:25:04;20.20;99.90
53264;DHT22;39153;52.680;6.172;2022-07-22T14:27:30;20.30;99.90
53264;DHT22;39153;52.680;6.172;2022-07-22T14:29:56;20.20;99.90
53264;DHT22;39153;52.680;6.172;2022-07-22T14:32:21;20.20;99.90
53264;DHT22;39153;52.680;6.172;2022-07-22T14:34:47;20.30;99.90
53264;DHT22;39153;52.680;6.172;2022-07-22T14:37:13;20.50;99.90
53264;DHT22;39153;52.680;6.172;2022-07-22T14:39:38;20.40;99.90
53264;DHT22;39153;52.680;6.172;2022-07-22T14:42:04;20.60;99.90
53264;DHT22;39153;52.680;6.172;2022-07-22T14:44:30;20.60;99.90
53264;DHT22;39153;52.680;6.172;2022-07-22T14:46:56;20.50;99.90
53264;DHT22;39153;52.680;6.172;2022-07-22T14:49:21;20.60;99.90
53264;DHT22;39153;52.680;6.172;2022-07-22T14:51:47;20.60;99.90
53264;DHT22;39153;52.680;6.172;2022-07-22T14:54:13;20.30;99.90
53264;DHT22;39153;52.680;6.172;2022-07-22T14:56:39;20.60;99.90
53264;DHT22;39153;52.680;6.172;2022-07-22T14:59:05;20.40;99.90
53264;DHT22;39153;52.680;6.172;2022-07-22T15:01:31;20.40;99.90
53264;DHT22;39153;52.680;6.172;2022-07-22T15:03:57;20.20;99.90
53264;DHT22;39153;52.680;6.172;2022-07-22T15:06:23;20.20;99.90
53264;DHT22;39153;52.680;6.172;2022-07-22T15:08:48;20.20;99.90
53264;DHT22;39153;52.680;6.172;2022-07-22T15:11:14;20.10;99.90
53264;DHT22;39153;52.680;6.172;2022-07-22T15:13:40;20.10;99.90
53264;DHT22;39153;52.680;6.172;2022-07-22T15:16:06;20.00;99.90
53264;DHT22;39153;52.680;6.172;2022-07-22T15:18:31;19.90;99.90
53264;DHT22;39153;52.680;6.172;2022-07-22T15:20:57;19.90;99.90
53264;DHT22;39153;52.680;6.172;2022-07-22T15:23:24;19.90;99.90
53264;DHT22;39153;52.680;6.172;2022-07-22T15:25:52;19.80;99.90
53264;DHT22;39153;52.680;6.172;2022-07-22T15:28:19;19.90;99.90
53264;DHT22;39153;52.680;6.172;2022-07-22T15:30:44;19.90;99.90
53264;DHT22;39153;52.680;6.172;2022-07-22T15:33:10;20.00;99.90
53264;DHT22;39153;52.680;6.172;2022-07-22T15:35:36;20.10;99.90
53264;DHT22;39153;52.680;6.172;2022-07-22T15:38:01;20.10;99.90
53264;DHT22;39153;52.680;6.172;2022-07-22T15:40:27;20.30;99.90